Ventnor, New Jersey
Current Conditions -  °F | °C
As of 10:54 AM on Thursday 30 Oct 2014 (Local Time) from KACY Reporting Station
Overcast Overcast  
Wind Chill: 55°   Ceiling: 7000
Heat Index: 55°   Visibility: 10mi
Dew Point: 43°   Wind: 10mph
Humidity: 64%   Direction: 340°NNW
Pressure: 30.02"   Gusts: NA
Location:  39.3406°N, 74.4859°W
Report Text: KACY 301454Z 34009KT 10SM OVC070 13/06 A3002 RMK AO2 SLP165 T01280061 51007
Loading
Personal Weather Stations






























Interactive Weather Map
Tropical Storm Tracking
New forecast layout! Learn more

10-Day Weather Forecast

Advertisements
Track Severe Weather on mobile